Time;durP1;ratioP1;P1;durP2;ratioP2;P2;SDS_P1;SDS_P2;PMS_P1;PMS_P2;Temp;Humidity;BMP_temperature;BMP_pressure;BME280_temperature;BME280_humidity;BME280_pressure;Samples;Min_cycle;Max_cycle;Signal;HPM_P1;HPM_P2
2023/10/03 00:03:44;;;;;;;;;;;21.20;50.10;;;20.52;50.87;101233.53;12262941;19;19915;-83
2023/10/03 00:07:47;;;;;;;;;;;21.10;50.10;;;20.45;50.88;101230.59;12264561;19;19934;-84
2023/10/03 00:11:49;;;;;;;;;;;21.00;50.10;;;20.39;51.21;101220.53;12265799;19;19951;-84
2023/10/03 00:15:50;;;;;;;;;;;21.00;50.20;;;20.39;50.72;101219.66;12263126;19;19918;-83
2023/10/03 00:19:52;;;;;;;;;;;20.90;50.10;;;20.36;50.66;101227.91;12260837;19;19919;-83
2023/10/03 00:23:54;;;;;;;;;;;20.90;50.20;;;20.31;51.15;101218.56;12263771;19;19918;-83
2023/10/03 00:27:59;;;;;;;;;;;20.80;50.10;;;20.28;51.12;101213.53;12264016;19;19923;-83
2023/10/03 00:32:02;;;;;;;;;;;20.80;50.20;;;20.18;51.11;101193.25;12261888;19;19926;-83
2023/10/03 00:36:03;;;;;;;;;;;20.80;50.20;;;20.22;51.21;101202.59;12262119;19;19930;-84
2023/10/03 00:44:21;;;;;;;;;;;20.70;50.20;;;20.13;51.23;101175.09;12264199;19;19907;-83
2023/10/03 00:48:22;;;;;;;;;;;20.70;50.20;;;20.12;51.15;101176.09;12262828;19;19918;-82
2023/10/03 00:52:24;;;;;;;;;;;20.70;50.30;;;20.03;51.22;101159.16;12259790;19;19914;-82
2023/10/03 00:56:26;;;;;;;;;;;20.70;50.30;;;20.06;51.30;101155.38;12259181;19;19930;-83
2023/10/03 01:00:28;;;;;;;;;;;20.60;50.30;;;19.95;51.17;101147.53;12261834;19;19919;-83
2023/10/03 01:04:31;;;;;;;;;;;20.60;50.30;;;20.01;51.12;101147.00;12261582;19;19915;-83
2023/10/03 01:08:36;;;;;;;;;;;20.60;50.30;;;19.97;51.52;101140.31;12261257;19;19918;-85
2023/10/03 01:12:38;;;;;;;;;;;20.50;50.20;;;19.88;51.40;101121.59;12261744;19;19956;-85
2023/10/03 01:16:39;;;;;;;;;;;20.50;50.20;;;19.80;51.30;101107.34;12261067;19;19927;-83
2023/10/03 01:20:41;;;;;;;;;;;20.50;50.20;;;19.86;51.25;101112.09;12258005;19;20348;-83
2023/10/03 01:24:43;;;;;;;;;;;20.50;50.20;;;19.80;51.47;101121.44;12258900;19;19922;-83
2023/10/03 01:28:44;;;;;;;;;;;20.40;50.20;;;19.68;51.32;101103.94;12259041;19;19919;-84
2023/10/03 01:32:54;;;;;;;;;;;20.40;50.20;;;19.66;51.38;101103.25;12254046;19;19915;-82
2023/10/03 01:36:55;;;;;;;;;;;20.30;50.20;;;19.57;51.56;101093.41;12260371;19;19922;-83
2023/10/03 01:40:58;;;;;;;;;;;20.30;50.20;;;19.55;51.42;101098.88;12256402;19;20337;-83
2023/10/03 01:44:59;;;;;;;;;;;20.10;50.00;;;19.45;51.19;101092.69;12257864;19;19915;-84
2023/10/03 01:49:02;;;;;;;;;;;20.10;50.10;;;19.37;51.18;101087.22;12258292;19;19923;-83
2023/10/03 01:53:04;;;;;;;;;;;20.00;50.10;;;19.31;51.50;101079.78;12250295;19;19915;-83
2023/10/03 01:57:06;;;;;;;;;;;20.00;50.20;;;19.18;51.62;101066.78;12258581;19;19951;-84
2023/10/03 02:01:08;;;;;;;;;;;19.90;50.10;;;19.20;51.44;101081.56;12256984;19;19911;-82
2023/10/03 02:05:12;;;;;;;;;;;19.80;50.10;;;19.14;51.61;101082.06;12255937;19;19950;-83
2023/10/03 02:09:14;;;;;;;;;;;19.80;50.20;;;19.01;51.17;101062.94;12256036;19;20013;-83
2023/10/03 02:13:17;;;;;;;;;;;19.70;50.10;;;19.00;51.29;101069.19;12254316;19;19915;-83
2023/10/03 02:17:19;;;;;;;;;;;19.60;50.50;;;18.88;51.31;101051.72;12255644;19;19947;-83
2023/10/03 02:21:23;;;;;;;;;;;19.60;50.10;;;18.85;51.55;101052.81;12257430;19;19923;-83
2023/10/03 02:25:30;;;;;;;;;;;19.50;50.20;;;18.80;51.75;101055.00;12257121;19;19930;-83
2023/10/03 02:29:32;;;;;;;;;;;19.50;50.20;;;18.74;51.51;101047.53;12255710;19;20329;-83
2023/10/03 02:33:43;;;;;;;;;;;19.40;50.20;;;18.62;51.60;101015.03;12252875;19;19936;-83
2023/10/03 02:37:45;;;;;;;;;;;19.40;50.20;;;18.66;51.64;101024.41;12257007;19;19925;-84
2023/10/03 02:41:46;;;;;;;;;;;19.30;50.20;;;18.62;51.52;101019.50;12255447;19;19934;-84
2023/10/03 02:45:48;;;;;;;;;;;19.20;50.20;;;18.54;51.53;101012.19;12266282;19;19918;-83
2023/10/03 02:49:51;;;;;;;;;;;19.20;50.40;;;18.52;51.82;101004.41;12264042;19;19915;-83
2023/10/03 02:53:53;;;;;;;;;;;19.20;50.40;;;18.48;51.77;100992.41;12262857;19;19933;-84
2023/10/03 02:57:56;;;;;;;;;;;19.10;50.40;;;18.46;51.60;100990.84;12263635;19;20313;-84
2023/10/03 03:01:57;;;;;;;;;;;19.10;50.30;;;18.44;51.56;100984.84;12266730;19;19927;-84
2023/10/03 03:06:03;;;;;;;;;;;19.00;50.30;;;18.32;51.78;100960.28;12266081;19;19927;-83
2023/10/03 03:10:05;;;;;;;;;;;19.00;50.30;;;18.33;51.79;100959.31;12263894;19;20349;-83
2023/10/03 03:14:07;;;;;;;;;;;19.00;50.40;;;18.32;51.74;100950.53;12263021;19;19915;-83
2023/10/03 03:18:09;;;;;;;;;;;19.00;50.50;;;18.32;51.82;100941.78;12266680;19;20333;-83
2023/10/03 03:22:14;;;;;;;;;;;19.00;50.50;;;18.10;51.69;100895.16;12268592;19;20272;-83
2023/10/03 03:26:20;;;;;;;;;;;19.00;50.60;;;18.23;51.85;100932.00;12264268;19;19926;-83
2023/10/03 03:34:30;;;;;;;;;;;18.90;50.60;;;18.23;52.02;100924.91;12260818;19;20384;-83
2023/10/03 03:38:32;;;;;;;;;;;18.90;50.80;;;18.24;51.90;100923.09;12264521;19;19943;-84
2023/10/03 03:42:34;;;;;;;;;;;18.90;50.70;;;18.10;52.05;100893.34;12264301;19;19922;-83
2023/10/03 03:46:35;;;;;;;;;;;18.80;50.70;;;18.17;52.22;100900.75;12266077;19;19910;-84
2023/10/03 03:50:38;;;;;;;;;;;18.80;50.70;;;18.13;51.91;100884.34;12261897;19;20460;-83
2023/10/03 03:54:40;;;;;;;;;;;18.80;50.70;;;18.10;52.27;100880.16;12261254;19;19967;-83
2023/10/03 03:58:44;;;;;;;;;;;18.80;50.80;;;18.07;52.21;100877.75;12264614;19;19917;-83
2023/10/03 04:02:48;;;;;;;;;;;18.70;51.10;;;18.06;51.98;100876.06;12262841;19;20416;-83
2023/10/03 04:06:49;;;;;;;;;;;18.70;51.00;;;17.98;52.28;100852.09;12263587;19;19919;-84
2023/10/03 04:10:51;;;;;;;;;;;18.70;51.20;;;17.97;52.28;100849.59;12261408;19;19923;-84
2023/10/03 04:14:52;;;;;;;;;;;18.70;51.20;;;18.01;52.12;100862.44;12267615;19;20006;-83
2023/10/03 04:18:54;;;;;;;;;;;18.70;51.20;;;18.02;52.17;100863.28;12264180;19;19919;-83
2023/10/03 04:22:58;;;;;;;;;;;18.70;51.20;;;17.97;52.20;100852.25;12267110;19;19922;-83
2023/10/03 04:27:07;;;;;;;;;;;18.70;51.20;;;18.01;52.22;100851.00;12263870;19;19918;-83
2023/10/03 04:31:09;;;;;;;;;;;18.70;51.20;;;17.91;52.45;100827.19;12260870;19;19911;-84
2023/10/03 04:35:13;;;;;;;;;;;18.70;51.20;;;17.98;52.36;100836.25;12259816;19;19946;-85
2023/10/03 04:39:15;;;;;;;;;;;18.80;51.30;;;18.02;52.35;100847.41;12262098;19;19923;-83
2023/10/03 04:43:17;;;;;;;;;;;18.70;51.20;;;18.02;52.57;100837.66;12260667;19;19931;-83
2023/10/03 04:47:18;;;;;;;;;;;18.70;51.50;;;18.02;52.46;100835.03;12259782;19;19966;-83
2023/10/03 04:51:20;;;;;;;;;;;18.70;51.30;;;17.93;52.58;100809.41;12257141;19;19917;-82
2023/10/03 04:55:22;;;;;;;;;;;18.80;51.60;;;18.01;52.50;100820.16;12258100;19;19914;-83
2023/10/03 04:59:25;;;;;;;;;;;18.70;51.60;;;18.01;52.40;100814.88;12255008;19;19919;-84
2023/10/03 05:03:27;;;;;;;;;;;18.70;51.50;;;18.01;52.58;100814.88;12255821;19;19918;-83
2023/10/03 05:07:28;;;;;;;;;;;18.70;51.40;;;17.93;52.36;100788.25;12256152;19;19915;-83
2023/10/03 05:11:30;;;;;;;;;;;18.80;51.40;;;17.95;52.76;100790.75;12255622;19;19915;-84
2023/10/03 05:15:32;;;;;;;;;;;18.80;51.60;;;18.02;52.57;100794.56;12255257;19;19914;-83
2023/10/03 05:19:36;;;;;;;;;;;18.80;51.60;;;18.01;52.62;100782.28;12253571;19;19923;-83
2023/10/03 05:23:38;;;;;;;;;;;18.80;51.60;;;18.02;52.66;100773.41;12258742;19;19919;-84
2023/10/03 05:27:43;;;;;;;;;;;18.80;51.40;;;18.04;52.83;100759.09;12252433;19;19921;-83
2023/10/03 05:31:44;;;;;;;;;;;18.80;51.40;;;18.06;52.79;100766.88;12254640;19;20584;-83
2023/10/03 05:35:46;;;;;;;;;;;18.80;51.40;;;18.04;52.65;100753.81;12257825;19;19907;-83
2023/10/03 05:39:48;;;;;;;;;;;18.80;51.40;;;18.03;52.43;100741.56;12248837;19;19973;-84
2023/10/03 05:43:50;;;;;;;;;;;18.90;51.50;;;18.09;52.54;100748.13;12245294;19;19919;-82
2023/10/03 05:47:52;;;;;;;;;;;18.90;51.50;;;18.07;52.91;100732.41;12249765;19;19935;-84
2023/10/03 05:51:55;;;;;;;;;;;18.90;51.50;;;17.99;53.03;100704.97;12248831;19;20593;-82
2023/10/03 05:55:58;;;;;;;;;;;18.90;51.90;;;18.16;52.92;100720.19;12252862;19;19971;-83
2023/10/03 06:00:00;;;;;;;;;;;19.00;51.70;;;18.20;52.82;100715.47;12252238;19;19911;-84
2023/10/03 06:04:02;;;;;;;;;;;19.00;51.60;;;18.17;52.87;100703.34;12246075;19;19990;-82
2023/10/03 06:08:04;;;;;;;;;;;19.10;51.70;;;18.24;53.00;100704.50;12250425;19;19915;-82
2023/10/03 06:12:05;;;;;;;;;;;19.10;51.60;;;18.30;53.00;100697.84;12250891;19;19938;-83
2023/10/03 06:16:07;;;;;;;;;;;19.20;51.90;;;18.39;53.10;100702.31;12248701;19;19926;-83
2023/10/03 06:20:15;;;;;;;;;;;19.20;52.50;;;18.44;52.83;100715.94;12248943;19;20394;-83
2023/10/03 06:24:17;;;;;;;;;;;19.30;51.80;;;18.49;52.89;100713.72;12262759;19;19926;-83
2023/10/03 06:28:18;;;;;;;;;;;19.40;51.90;;;18.52;53.15;100700.25;12258871;19;19923;-85
2023/10/03 06:32:20;;;;;;;;;;;19.40;51.80;;;18.61;53.25;100685.38;12256687;19;19933;-83
2023/10/03 06:36:22;;;;;;;;;;;19.50;51.80;;;18.62;53.17;100665.03;12257795;19;20281;-83
2023/10/03 06:40:23;;;;;;;;;;;19.60;51.70;;;18.73;53.23;100671.03;12259777;19;20321;-83
2023/10/03 06:44:25;;;;;;;;;;;19.60;51.60;;;18.56;53.10;100640.81;12258871;19;19925;-82
2023/10/03 06:48:27;;;;;;;;;;;19.70;51.90;;;18.84;53.33;100667.44;12253273;19;19920;-82
2023/10/03 06:52:28;;;;;;;;;;;19.70;52.20;;;18.89;53.23;100661.75;12254525;19;19915;-82
2023/10/03 06:56:32;;;;;;;;;;;19.70;52.00;;;18.96;53.23;100674.28;12252577;19;19929;-82
2023/10/03 07:00:34;;;;;;;;;;;19.80;51.80;;;19.01;53.34;100673.84;12255739;19;20321;-83
2023/10/03 07:04:35;;;;;;;;;;;19.90;51.90;;;19.04;53.31;100656.84;12257537;19;19943;-83
2023/10/03 07:08:37;;;;;;;;;;;20.00;51.80;;;19.15;53.24;100668.13;12257183;19;19918;-83
2023/10/03 07:12:39;;;;;;;;;;;20.00;51.70;;;19.17;53.32;100654.72;12255299;19;19931;-83
2023/10/03 07:16:41;;;;;;;;;;;20.10;51.90;;;19.29;53.23;100668.66;12249790;19;19954;-82
2023/10/03 07:20:43;;;;;;;;;;;20.20;51.70;;;19.38;53.23;100663.31;12245340;19;19930;-83
2023/10/03 07:24:44;;;;;;;;;;;20.30;52.30;;;19.48;53.50;100628.03;12259401;19;19939;-83
2023/10/03 07:28:46;;;;;;;;;;;20.40;51.90;;;19.52;53.33;100614.34;12254286;19;20273;-83
2023/10/03 07:32:48;;;;;;;;;;;20.50;52.00;;;19.62;53.06;100622.25;12248615;19;19990;-83
2023/10/03 07:36:49;;;;;;;;;;;20.50;51.80;;;19.72;53.27;100625.75;12257459;19;19978;-83
2023/10/03 07:40:50;;;;;;;;;;;20.60;51.70;;;19.68;53.29;100619.06;12257757;19;20399;-83
2023/10/03 07:44:52;;;;;;;;;;;20.70;51.90;;;19.82;53.08;100608.00;12261994;19;19926;-83
2023/10/03 07:48:54;;;;;;;;;;;20.80;51.80;;;19.95;53.45;100623.53;12256178;19;19911;-83
2023/10/03 07:52:57;;;;;;;;;;;20.90;52.10;;;20.08;53.21;100628.47;12253417;19;20363;-83
2023/10/03 07:57:04;;;;;;;;;;;21.00;51.70;;;20.15;53.53;100632.22;12252329;19;20013;-84
2023/10/03 08:01:06;;;;;;;;;;;21.10;52.00;;;20.25;53.67;100609.13;12246517;19;19965;-84
2023/10/03 08:05:08;;;;;;;;;;;21.20;52.10;;;20.41;53.24;100613.72;12252158;19;19931;-83
2023/10/03 08:09:11;;;;;;;;;;;21.40;52.00;;;20.41;53.38;100584.56;12254307;19;19919;-83
2023/10/03 08:13:16;;;;;;;;;;;21.50;51.80;;;20.59;53.13;100597.84;12253826;19;19915;-84
2023/10/03 08:17:19;;;;;;;;;;;21.70;51.80;;;20.84;53.39;100608.66;12253698;19;19930;-83
2023/10/03 08:21:21;;;;;;;;;;;21.80;51.80;;;21.02;53.28;100604.16;12251876;19;19915;-84
2023/10/03 08:25:25;;;;;;;;;;;22.00;51.80;;;21.27;53.36;100626.38;12252318;19;20280;-84
2023/10/03 08:29:27;;;;;;;;;;;22.20;51.80;;;21.41;53.32;100604.59;12255873;19;19923;-84
2023/10/03 08:33:28;;;;;;;;;;;22.40;51.90;;;21.61;53.52;100599.88;12258157;19;19939;-84
2023/10/03 08:37:30;;;;;;;;;;;22.60;51.90;;;21.87;53.65;100601.59;12258255;19;19990;-84
2023/10/03 08:41:37;;;;;;;;;;;22.90;51.90;;;22.18;53.47;100588.59;12256350;19;19923;-83
2023/10/03 08:45:41;;;;;;;;;;;23.20;51.90;;;22.39;53.65;100585.47;12259246;19;19951;-85
2023/10/03 08:49:48;;;;;;;;;;;23.40;51.40;;;22.61;53.52;100577.84;12244362;19;20340;-83
2023/10/03 08:53:55;;;;;;;;;;;23.70;51.50;;;22.82;53.24;100572.81;12243889;19;19926;-83
2023/10/03 08:58:00;;;;;;;;;;;23.90;51.30;;;22.96;53.41;100566.00;12248153;19;19926;-83
2023/10/03 09:02:06;;;;;;;;;;;24.10;50.10;;;23.11;53.21;100558.97;12245024;19;19922;-84
2023/10/03 09:06:07;;;;;;;;;;;24.30;50.60;;;23.28;53.37;100565.09;12249503;19;19923;-85
2023/10/03 09:10:19;;;;;;;;;;;24.40;50.90;;;23.39;53.12;100546.06;12260981;19;19915;-82
2023/10/03 09:14:21;;;;;;;;;;;24.50;50.80;;;23.52;53.08;100542.00;12255095;19;19975;-84
2023/10/03 09:18:25;;;;;;;;;;;24.60;50.70;;;23.66;52.98;100551.94;12249995;19;19915;-84
2023/10/03 09:22:30;;;;;;;;;;;24.70;50.60;;;23.79;53.38;100546.91;12252703;19;19922;-83
2023/10/03 09:26:47;;;;;;;;;;;24.90;49.90;;;23.89;52.93;100541.34;12264563;19;20392;-84
2023/10/03 09:30:49;;;;;;;;;;;25.00;50.10;;;24.04;52.92;100550.25;12251144;19;19936;-82
2023/10/03 09:34:56;;;;;;;;;;;25.10;50.00;;;24.09;52.92;100523.06;12254950;19;19923;-83
2023/10/03 09:38:59;;;;;;;;;;;25.20;48.90;;;24.29;52.69;100542.06;12261527;19;19922;-85
2023/10/03 09:43:02;;;;;;;;;;;25.30;49.60;;;24.34;52.86;100538.88;12257028;19;19926;-84
2023/10/03 09:47:06;;;;;;;;;;;25.40;49.90;;;24.47;52.74;100550.63;12261591;19;19939;-84
2023/10/03 09:51:13;;;;;;;;;;;25.50;49.30;;;24.51;52.93;100529.72;12265455;19;19918;-83
2023/10/03 09:55:21;;;;;;;;;;;25.60;49.50;;;24.64;52.41;100529.94;12271974;19;19930;-84
2023/10/03 09:59:24;;;;;;;;;;;25.70;49.70;;;24.68;52.86;100509.03;12274514;19;20341;-82
2023/10/03 10:03:48;;;;;;;;;;;25.80;49.20;;;24.94;52.81;100535.31;12273378;19;19941;-85
2023/10/03 10:08:08;;;;;;;;;;;25.90;48.40;;;25.09;52.49;100519.31;12273890;19;20333;-85
2023/10/03 10:12:11;;;;;;;;;;;26.10;49.60;;;25.13;52.60;100510.72;12274000;19;19927;-83
2023/10/03 10:16:22;;;;;;;;;;;26.20;49.10;;;25.30;52.57;100523.91;12273888;19;19918;-83
2023/10/03 10:20:32;;;;;;;;;;;26.40;49.40;;;25.47;52.19;100517.38;12265517;19;19931;-84
2023/10/03 10:24:40;;;;;;;;;;;26.50;49.70;;;25.50;52.25;100521.50;12274491;19;19944;-84
2023/10/03 10:28:42;;;;;;;;;;;26.70;49.70;;;25.71;52.30;100540.28;12270931;19;19922;-85
2023/10/03 10:33:15;;;;;;;;;;;26.80;49.20;;;25.85;52.19;100543.97;12259543;19;19911;-84
2023/10/03 10:37:18;;;;;;;;;;;26.90;49.30;;;25.89;51.93;100518.47;12257664;19;19919;-83
2023/10/03 10:45:23;;;;;;;;;;;27.10;48.80;;;26.16;52.09;100505.34;12254772;19;20286;-83
2023/10/03 10:49:30;;;;;;;;;;;27.10;47.20;;;26.25;52.14;100498.84;12254434;19;19926;-83
2023/10/03 10:53:43;;;;;;;;;;;27.30;48.50;;;26.35;51.60;100501.19;12252995;19;19926;-84
2023/10/03 10:57:44;;;;;;;;;;;27.30;49.00;;;26.42;51.83;100516.28;12256221;19;19926;-83
2023/10/03 11:01:47;;;;;;;;;;;27.40;48.10;;;26.49;51.82;100509.16;12250286;19;20332;-83
2023/10/03 11:05:50;;;;;;;;;;;27.50;48.40;;;26.48;51.69;100486.03;12254615;19;20301;-86
2023/10/03 11:09:54;;;;;;;;;;;27.60;49.10;;;26.52;51.53;100478.50;12248629;19;19915;-85
2023/10/03 11:13:56;;;;;;;;;;;27.70;48.70;;;26.81;51.28;100517.63;12252085;19;19930;-83
2023/10/03 11:17:58;;;;;;;;;;;27.80;48.60;;;26.83;51.55;100520.13;12264526;19;19942;-83
2023/10/03 11:21:59;;;;;;;;;;;27.90;48.70;;;26.87;51.36;100489.22;12259304;19;19931;-83
2023/10/03 11:26:03;;;;;;;;;;;27.90;48.20;;;26.96;51.29;100511.34;12258506;19;19919;-83
2023/10/03 11:30:16;;;;;;;;;;;28.00;46.80;;;26.99;51.21;100514.44;12257480;19;20301;-83
2023/10/03 11:34:28;;;;;;;;;;;28.00;48.10;;;27.08;50.83;100512.41;12259729;19;19986;-84
2023/10/03 11:38:30;;;;;;;;;;;28.10;48.10;;;27.21;51.27;100538.50;12267900;19;19934;-85
2023/10/03 11:42:31;;;;;;;;;;;28.20;47.10;;;27.30;50.95;100530.13;12268636;19;19972;-82
2023/10/03 11:46:43;;;;;;;;;;;28.20;47.50;;;27.34;51.04;100542.09;12253082;19;19935;-83
2023/10/03 11:50:45;;;;;;;;;;;28.30;47.50;;;27.29;50.48;100516.88;12253182;19;20008;-84
2023/10/03 11:54:47;;;;;;;;;;;28.30;48.10;;;27.41;50.83;100542.13;12250302;19;19918;-83
2023/10/03 11:58:50;;;;;;;;;;;28.30;47.30;;;27.37;50.71;100532.81;12252352;19;19915;-84
2023/10/03 12:02:52;;;;;;;;;;;28.40;47.80;;;27.44;50.58;100548.94;12262633;19;19927;-84
2023/10/03 12:06:54;;;;;;;;;;;28.40;48.00;;;27.44;50.40;100562.38;12259597;19;19935;-84
2023/10/03 12:10:55;;;;;;;;;;;28.40;48.10;;;27.38;50.53;100552.41;12255292;19;19964;-86
2023/10/03 12:14:56;;;;;;;;;;;28.30;48.00;;;27.43;50.11;100558.81;12258847;19;19915;-84
2023/10/03 12:18:58;;;;;;;;;;;28.20;47.30;;;27.39;50.18;100557.59;12250918;19;21253;-84
2023/10/03 12:23:01;;;;;;;;;;;28.30;47.40;;;27.38;50.68;100563.13;12252256;19;19922;-84
2023/10/03 12:27:04;;;;;;;;;;;28.30;47.70;;;27.26;50.21;100552.97;12249476;19;19918;-85
2023/10/03 12:31:06;;;;;;;;;;;28.20;47.20;;;27.30;50.13;100597.16;12252055;19;19931;-84
2023/10/03 12:35:09;;;;;;;;;;;28.20;47.50;;;27.24;49.85;100581.00;12249261;19;19940;-84
2023/10/03 12:39:10;;;;;;;;;;;28.10;47.30;;;27.25;50.06;100580.81;12254237;19;19952;-84
2023/10/03 12:43:12;;;;;;;;;;;28.00;47.20;;;27.19;49.78;100586.97;12252600;19;19982;-85
2023/10/03 12:47:14;;;;;;;;;;;28.00;47.30;;;27.12;50.07;100572.66;12258988;19;19919;-85
2023/10/03 12:51:16;;;;;;;;;;;28.00;47.40;;;27.16;49.94;100579.28;12257101;19;19927;-84
2023/10/03 12:55:18;;;;;;;;;;;27.90;47.20;;;27.12;49.58;100568.13;12251687;19;19937;-84
2023/10/03 12:59:19;;;;;;;;;;;27.90;47.50;;;27.12;49.96;100567.31;12250732;19;19931;-83
2023/10/03 13:03:21;;;;;;;;;;;27.80;47.40;;;27.11;49.83;100563.81;12248587;19;19929;-84
2023/10/03 13:07:22;;;;;;;;;;;27.80;47.20;;;27.08;50.05;100572.22;12254023;19;19918;-84
2023/10/03 13:11:24;;;;;;;;;;;27.80;47.40;;;26.97;49.71;100553.19;12259283;19;19929;-86
2023/10/03 13:15:26;;;;;;;;;;;27.80;47.30;;;26.95;49.65;100563.25;12258257;19;20180;-85
2023/10/03 13:19:29;;;;;;;;;;;27.80;46.80;;;26.90;49.55;100556.66;12256733;19;19915;-84
2023/10/03 13:23:31;;;;;;;;;;;27.70;47.30;;;26.76;49.81;100538.00;12257016;19;19930;-83
2023/10/03 13:27:34;;;;;;;;;;;27.70;46.30;;;26.93;49.84;100566.16;12254775;19;19958;-85
2023/10/03 13:31:36;;;;;;;;;;;27.70;47.50;;;26.72;49.43;100528.69;12256222;19;19923;-83
2023/10/03 13:35:38;;;;;;;;;;;27.60;47.60;;;26.89;49.71;100552.31;12255858;19;19927;-84
2023/10/03 13:39:40;;;;;;;;;;;27.60;47.70;;;26.89;49.58;100563.03;12251827;19;19923;-85
2023/10/03 13:43:41;;;;;;;;;;;27.60;47.50;;;26.88;49.34;100568.59;12233169;19;19915;-85
2023/10/03 13:47:45;;;;;;;;;;;27.60;47.70;;;26.88;49.32;100566.75;12257493;19;19919;-84
2023/10/03 13:51:47;;;;;;;;;;;27.50;47.60;;;26.80;49.34;100547.31;12256738;19;19915;-84
2023/10/03 13:55:48;;;;;;;;;;;27.50;47.50;;;26.85;49.38;100559.09;12249206;19;19919;-84
2023/10/03 13:59:49;;;;;;;;;;;27.50;47.50;;;26.79;49.49;100551.00;12253189;19;19918;-83
2023/10/03 14:03:51;;;;;;;;;;;27.50;47.50;;;26.84;48.98;100560.13;12263955;19;19926;-84
2023/10/03 14:07:55;;;;;;;;;;;27.50;47.50;;;26.86;49.18;100559.91;12270337;19;19929;-85
2023/10/03 14:11:57;;;;;;;;;;;27.50;47.40;;;26.83;49.38;100563.81;12269339;19;19919;-86
2023/10/03 14:15:58;;;;;;;;;;;27.40;47.50;;;26.76;48.84;100562.97;12265928;19;21140;-84
2023/10/03 14:20:00;;;;;;;;;;;27.40;47.10;;;26.70;48.98;100553.00;12264430;19;19903;-86
2023/10/03 14:24:01;;;;;;;;;;;27.40;47.50;;;26.75;49.04;100566.63;12259194;19;19920;-85
2023/10/03 14:28:04;;;;;;;;;;;27.40;47.50;;;26.65;49.07;100558.97;12274540;19;19923;-84
2023/10/03 14:32:06;;;;;;;;;;;27.30;47.50;;;26.71;49.02;100570.75;12270872;19;19926;-84
2023/10/03 14:36:11;;;;;;;;;;;27.40;47.40;;;26.39;49.30;100511.31;12274998;19;19926;-84
2023/10/03 14:40:18;;;;;;;;;;;27.30;47.40;;;26.64;48.96;100551.94;12274124;19;19925;-85
2023/10/03 14:44:19;;;;;;;;;;;27.30;46.70;;;26.55;49.18;100552.28;12285341;19;19918;-85
2023/10/03 14:48:24;;;;;;;;;;;27.20;47.20;;;26.55;49.04;100563.81;12284960;19;19929;-85
2023/10/03 14:52:28;;;;;;;;;;;27.20;47.50;;;26.56;48.96;100565.47;12283290;19;19933;-85
2023/10/03 14:56:30;;;;;;;;;;;27.20;47.50;;;26.55;49.00;100558.47;12283052;19;19919;-84
2023/10/03 15:00:34;;;;;;;;;;;27.20;47.50;;;26.53;48.74;100562.34;12279887;19;19919;-84
2023/10/03 15:04:36;;;;;;;;;;;27.10;47.60;;;26.53;48.90;100565.03;12282844;19;19927;-82
2023/10/03 15:08:38;;;;;;;;;;;27.10;47.70;;;26.49;48.87;100572.56;12279989;19;19940;-85
2023/10/03 15:12:39;;;;;;;;;;;27.10;47.50;;;26.39;48.81;100572.91;12264047;19;19950;-83
2023/10/03 15:16:41;;;;;;;;;;;27.10;47.50;;;26.30;48.79;100557.97;12275710;19;19923;-85
2023/10/03 15:20:43;;;;;;;;;;;27.00;47.10;;;26.33;48.77;100568.34;12273197;19;19927;-85
2023/10/03 15:24:44;;;;;;;;;;;27.00;47.40;;;26.27;49.08;100564.56;12272845;19;19914;-87
2023/10/03 15:28:45;;;;;;;;;;;26.90;47.40;;;26.04;48.87;100531.81;12278207;19;19949;-86
2023/10/03 15:32:47;;;;;;;;;;;26.90;47.20;;;26.21;48.80;100565.31;12275601;19;19927;-86
2023/10/03 15:36:49;;;;;;;;;;;26.90;47.40;;;26.19;48.82;100567.38;12282363;19;19926;-85
2023/10/03 15:40:50;;;;;;;;;;;26.80;47.10;;;26.12;48.55;100560.31;12276866;19;20879;-86
2023/10/03 15:44:53;;;;;;;;;;;26.80;47.20;;;26.14;48.97;100558.25;12276879;19;19931;-83
2023/10/03 15:48:55;;;;;;;;;;;26.70;47.10;;;26.10;48.78;100568.50;12274962;19;19919;-84
2023/10/03 15:52:57;;;;;;;;;;;26.70;47.10;;;26.12;48.59;100546.91;12274803;19;19914;-84
2023/10/03 15:56:58;;;;;;;;;;;26.70;47.00;;;26.09;48.47;100563.38;12280851;19;20031;-85
2023/10/03 16:01:00;;;;;;;;;;;26.70;47.10;;;26.05;48.55;100554.88;12279112;19;19914;-85
2023/10/03 16:05:04;;;;;;;;;;;26.70;46.80;;;25.98;48.56;100560.16;12273443;19;19923;-83
2023/10/03 16:09:12;;;;;;;;;;;26.70;47.20;;;26.03;48.81;100573.81;12265886;19;19968;-86
2023/10/03 16:13:17;;;;;;;;;;;26.60;47.00;;;26.01;48.71;100566.97;12257278;19;19927;-85
2023/10/03 16:17:19;;;;;;;;;;;26.60;47.20;;;25.96;48.73;100647.00;12259927;19;19915;-83
2023/10/03 16:21:20;;;;;;;;;;;26.60;46.80;;;25.75;48.13;100739.50;12272970;19;19926;-83
2023/10/03 16:25:26;;;;;;;;;;;26.50;47.20;;;25.29;48.55;100699.53;12254382;19;20470;-84
2023/10/03 16:29:28;;;;;;;;;;;26.20;47.20;;;25.00;48.72;100731.50;12276652;19;19939;-84
2023/10/03 16:33:30;;;;;;;;;;;25.80;47.00;;;24.65;48.56;100710.53;12268058;19;19919;-83
2023/10/03 16:37:32;;;;;;;;;;;25.50;47.10;;;24.43;48.63;100748.69;12284020;19;20310;-83
2023/10/03 16:41:34;;;;;;;;;;;25.10;47.20;;;24.22;48.61;100744.78;12282502;19;19915;-83
2023/10/03 16:45:36;;;;;;;;;;;24.80;47.50;;;24.09;48.69;100771.19;12281334;19;19922;-83
2023/10/03 16:49:39;;;;;;;;;;;24.60;47.90;;;23.90;48.70;100766.22;12285974;19;19919;-82
2023/10/03 16:53:43;;;;;;;;;;;24.30;47.90;;;23.73;48.55;100776.94;12283540;19;19919;-82
2023/10/03 16:57:45;;;;;;;;;;;24.10;48.10;;;23.51;48.45;100774.94;12287514;19;19935;-83
2023/10/03 17:01:47;;;;;;;;;;;23.90;48.40;;;23.44;48.76;100803.25;12285119;19;19918;-83
2023/10/03 17:05:49;;;;;;;;;;;23.80;48.40;;;23.29;48.53;100838.56;12287032;19;19919;-83
2023/10/03 17:09:50;;;;;;;;;;;23.60;48.60;;;23.11;48.93;100852.00;12283671;19;19923;-83
2023/10/03 17:13:52;;;;;;;;;;;23.50;48.90;;;23.01;48.58;100845.16;12280298;19;19922;-83
2023/10/03 17:17:54;;;;;;;;;;;23.30;49.00;;;22.92;48.78;100841.63;12272457;19;19929;-84
2023/10/03 17:21:57;;;;;;;;;;;23.20;49.10;;;22.89;48.90;100821.47;12277516;19;19922;-82
2023/10/03 17:26:00;;;;;;;;;;;23.20;49.30;;;22.89;48.73;100825.97;12282365;19;20928;-85
2023/10/03 17:30:11;;;;;;;;;;;23.10;49.40;;;22.81;49.06;100834.75;12281416;19;19925;-82
2023/10/03 17:34:14;;;;;;;;;;;23.00;49.50;;;22.78;49.14;100824.44;12262436;19;19919;-83
2023/10/03 17:38:19;;;;;;;;;;;23.00;49.50;;;22.75;49.02;100854.88;12262419;19;19914;-83
2023/10/03 17:42:21;;;;;;;;;;;23.00;49.60;;;22.68;49.29;100859.19;12279771;19;20253;-84
2023/10/03 17:46:22;;;;;;;;;;;23.00;49.90;;;22.56;48.87;100871.13;12277290;19;19930;-84
2023/10/03 17:50:25;;;;;;;;;;;22.80;49.80;;;22.45;48.96;100872.22;12276561;19;19927;-84
2023/10/03 17:54:27;;;;;;;;;;;22.80;49.60;;;22.37;49.25;100898.78;12271256;19;19918;-85
2023/10/03 17:58:29;;;;;;;;;;;22.70;49.50;;;22.29;49.38;100896.09;12280636;19;19915;-84
2023/10/03 18:02:33;;;;;;;;;;;22.60;49.60;;;22.26;49.13;100904.38;12279113;19;19918;-84
2023/10/03 18:06:35;;;;;;;;;;;22.60;49.70;;;22.09;49.17;100922.88;12282850;19;19939;-83
2023/10/03 18:10:36;;;;;;;;;;;22.60;49.80;;;21.98;49.70;100946.19;12271425;19;19927;-82
2023/10/03 18:14:37;;;;;;;;;;;22.50;49.80;;;21.94;49.73;100960.78;12266967;19;19918;-84
2023/10/03 18:18:39;;;;;;;;;;;22.40;49.70;;;21.77;49.38;100943.88;12274735;19;19919;-85
2023/10/03 18:22:43;;;;;;;;;;;22.20;49.90;;;21.61;49.48;100955.19;12283403;19;19919;-82
2023/10/03 18:26:44;;;;;;;;;;;22.10;49.90;;;21.53;49.62;100982.50;12288417;19;19907;-84